PWSweather.com
Personal Weather Stations
Station Observations
IMAZOWIE6
WarszawaPL

WarszawaPL

Lat: 52.27957, Lon: 21.05489

Elevation: 100

Station Type: WS1080

http://stacjapogody.waw.pl/

High Low Average
Temperature 88.0°F31.1°C 63.5°F17.5°C 74.1°F23.4°C
Dew Point -164.0°F-108.9°C -166.5°F-110.3°C -165.4°F-109.7°C
Winds 5.4 mph 8.7 kmh Calm Calm 1.0 mph N1.6 kmh N
Wind Gusts 8.8 mph14.2 kmh -- 2.0 mph3.2 kmh
Humidity - - -
Pressure 29.58 in1001.7 mb 29.39 in995.3 mb -
Precipitation 0.00 in0.0 mm - -
Hour Temp Dew Point Humidity Winds Wind Gusts Pressure Precip Precip Rate Daily Precip Total
12:04 AM 79.9°F26.6°C -164.8°F-109.3°C - 0.6 mph N1.0 kmh N 2.8 mph4.5 kmh 29.41 in995.9 mb 0.00 in0.0 mm 0.00 in0.0 mm 0.00 in0.0 mm
12:19 AM 80.2°F26.8°C -164.8°F-109.3°C - Calm Calm 1.4 mph2.3 kmh 29.41 in995.9 mb 0.00 in0.0 mm 0.00 in0.0 mm 0.00 in0.0 mm
12:34 AM 80.1°F26.7°C -164.8°F-109.3°C - 0.6 mph N1.0 kmh N 2.0 mph3.2 kmh 29.41 in995.9 mb 0.00 in0.0 mm 0.00 in0.0 mm 0.00 in0.0 mm
12:49 AM 79.7°F26.5°C -164.8°F-109.3°C - 0.6 mph N1.0 kmh N 2.0 mph3.2 kmh 29.40 in995.6 mb 0.00 in0.0 mm 0.00 in0.0 mm 0.00 in0.0 mm
01:04 AM 79.5°F26.4°C -164.8°F-109.3°C - Calm Calm 1.4 mph2.3 kmh 29.40 in995.6 mb 0.00 in0.0 mm 0.00 in0.0 mm 0.00 in0.0 mm
01:19 AM 78.4°F25.8°C -165.0°F-109.4°C - Calm Calm 0.6 mph1.0 kmh 29.41 in995.9 mb 0.00 in0.0 mm 0.00 in0.0 mm 0.00 in0.0 mm
01:34 AM 77.9°F25.5°C -165.0°F-109.4°C - Calm Calm 1.4 mph2.3 kmh 29.40 in995.6 mb 0.00 in0.0 mm 0.00 in0.0 mm 0.00 in0.0 mm
01:49 AM 77.4°F25.2°C -165.1°F-109.5°C - Calm Calm -- 29.39 in995.3 mb 0.00 in0.0 mm 0.00 in0.0 mm 0.00 in0.0 mm
02:04 AM 76.6°F24.8°C -165.1°F-109.5°C - Calm Calm -- 29.39 in995.3 mb 0.00 in0.0 mm 0.00 in0.0 mm 0.00 in0.0 mm
02:19 AM 75.7°F24.3°C -165.2°F-109.6°C - Calm Calm 1.4 mph2.3 kmh 29.39 in995.3 mb 0.00 in0.0 mm 0.00 in0.0 mm 0.00 in0.0 mm
02:35 AM 75.0°F23.9°C -165.3°F-109.6°C - Calm Calm 0.6 mph1.0 kmh 29.39 in995.3 mb 0.00 in0.0 mm 0.00 in0.0 mm 0.00 in0.0 mm
02:49 AM 74.5°F23.6°C -165.4°F-109.7°C - Calm Calm 0.6 mph1.0 kmh 29.39 in995.3 mb 0.00 in0.0 mm 0.00 in0.0 mm 0.00 in0.0 mm
03:04 AM 74.1°F23.4°C -165.4°F-109.7°C - Calm Calm 0.6 mph1.0 kmh 29.39 in995.3 mb 0.00 in0.0 mm 0.00 in0.0 mm 0.00 in0.0 mm
03:19 AM 74.3°F23.5°C -165.4°F-109.7°C - Calm Calm 0.6 mph1.0 kmh 29.39 in995.3 mb 0.00 in0.0 mm 0.00 in0.0 mm 0.00 in0.0 mm
03:34 AM 74.3°F23.5°C -165.4°F-109.7°C - 0.6 mph N1.0 kmh N 2.8 mph4.5 kmh 29.39 in995.3 mb 0.00 in0.0 mm 0.00 in0.0 mm 0.00 in0.0 mm
03:49 AM 74.5°F23.6°C -165.4°F-109.7°C - 2.8 mph N4.5 kmh N 4.8 mph7.7 kmh 29.41 in995.9 mb 0.00 in0.0 mm 0.00 in0.0 mm 0.00 in0.0 mm
04:04 AM 74.1°F23.4°C -165.4°F-109.7°C - 2.0 mph N3.2 kmh N 4.8 mph7.7 kmh 29.41 in995.9 mb 0.00 in0.0 mm 0.00 in0.0 mm 0.00 in0.0 mm
04:19 AM 73.0°F22.8°C -165.5°F-109.7°C - 2.0 mph N3.2 kmh N 4.8 mph7.7 kmh 29.41 in995.9 mb 0.00 in0.0 mm 0.00 in0.0 mm 0.00 in0.0 mm
04:34 AM 72.3°F22.4°C -165.6°F-109.8°C - 1.4 mph N2.3 kmh N 2.8 mph4.5 kmh 29.42 in996.3 mb 0.00 in0.0 mm 0.00 in0.0 mm 0.00 in0.0 mm
04:49 AM 72.5°F22.5°C -165.6°F-109.8°C - 2.0 mph N3.2 kmh N 5.4 mph8.7 kmh 29.42 in996.3 mb 0.00 in0.0 mm 0.00 in0.0 mm 0.00 in0.0 mm
05:04 AM 73.0°F22.8°C -165.5°F-109.7°C - Calm Calm 1.4 mph2.3 kmh 29.41 in995.9 mb 0.00 in0.0 mm 0.00 in0.0 mm 0.00 in0.0 mm
05:19 AM 74.7°F23.7°C -165.3°F-109.6°C - Calm Calm 0.6 mph1.0 kmh 29.40 in995.6 mb 0.00 in0.0 mm 0.00 in0.0 mm 0.00 in0.0 mm
05:34 AM 75.7°F24.3°C -165.2°F-109.6°C - Calm Calm 2.0 mph3.2 kmh 29.41 in995.9 mb 0.00 in0.0 mm 0.00 in0.0 mm 0.00 in0.0 mm
05:49 AM 76.8°F24.9°C -165.1°F-109.5°C - Calm Calm 0.6 mph1.0 kmh 29.41 in995.9 mb 0.00 in0.0 mm 0.00 in0.0 mm 0.00 in0.0 mm
06:04 AM 78.1°F25.6°C -165.0°F-109.4°C - 1.4 mph N2.3 kmh N 2.8 mph4.5 kmh 29.41 in995.9 mb 0.00 in0.0 mm 0.00 in0.0 mm 0.00 in0.0 mm
06:19 AM 80.8°F27.1°C -164.7°F-109.3°C - Calm Calm 0.6 mph1.0 kmh 29.41 in995.9 mb 0.00 in0.0 mm 0.00 in0.0 mm 0.00 in0.0 mm
06:34 AM 82.0°F27.8°C -164.6°F-109.2°C - Calm Calm -- 29.41 in995.9 mb 0.00 in0.0 mm 0.00 in0.0 mm 0.00 in0.0 mm
06:49 AM 82.6°F28.1°C -164.5°F-109.2°C - Calm Calm 1.4 mph2.3 kmh 29.42 in996.3 mb 0.00 in0.0 mm 0.00 in0.0 mm 0.00 in0.0 mm
07:04 AM 84.0°F28.9°C -164.4°F-109.1°C - Calm Calm 0.6 mph1.0 kmh 29.42 in996.3 mb 0.00 in0.0 mm 0.00 in0.0 mm 0.00 in0.0 mm
07:19 AM 86.0°F30.0°C -164.2°F-109.0°C - Calm Calm 0.6 mph1.0 kmh 29.43 in996.6 mb 0.00 in0.0 mm 0.00 in0.0 mm 0.00 in0.0 mm
07:34 AM 88.0°F31.1°C -164.0°F-108.9°C - 1.4 mph N2.3 kmh N 3.4 mph5.5 kmh 29.44 in997.0 mb 0.00 in0.0 mm 0.00 in0.0 mm 0.00 in0.0 mm
07:49 AM 86.7°F30.4°C -164.1°F-108.9°C - 2.0 mph N3.2 kmh N 4.0 mph6.4 kmh 29.45 in997.3 mb 0.00 in0.0 mm 0.00 in0.0 mm 0.00 in0.0 mm
08:04 AM 86.2°F30.1°C -164.2°F-109.0°C - 2.8 mph N4.5 kmh N 6.8 mph10.9 kmh 29.45 in997.3 mb 0.00 in0.0 mm 0.00 in0.0 mm 0.00 in0.0 mm
08:19 AM 84.6°F29.2°C -164.3°F-109.1°C - 2.0 mph N3.2 kmh N 4.0 mph6.4 kmh 29.45 in997.3 mb 0.00 in0.0 mm 0.00 in0.0 mm 0.00 in0.0 mm
08:34 AM 85.8°F29.9°C -164.2°F-109.0°C - 1.4 mph N2.3 kmh N 4.0 mph6.4 kmh 29.45 in997.3 mb 0.00 in0.0 mm 0.00 in0.0 mm 0.00 in0.0 mm
08:49 AM 85.8°F29.9°C -164.2°F-109.0°C - 0.6 mph N1.0 kmh N 3.4 mph5.5 kmh 29.45 in997.3 mb 0.00 in0.0 mm 0.00 in0.0 mm 0.00 in0.0 mm
09:04 AM 85.8°F29.9°C -164.2°F-109.0°C - 2.0 mph N3.2 kmh N 4.8 mph7.7 kmh 29.45 in997.3 mb 0.00 in0.0 mm 0.00 in0.0 mm 0.00 in0.0 mm
09:19 AM 85.5°F29.7°C -164.3°F-109.1°C - 2.0 mph N3.2 kmh N 4.0 mph6.4 kmh 29.46 in997.6 mb 0.00 in0.0 mm 0.00 in0.0 mm 0.00 in0.0 mm
09:34 AM 85.5°F29.7°C -164.3°F-109.1°C - 1.4 mph N2.3 kmh N 2.8 mph4.5 kmh 29.47 in998.0 mb 0.00 in0.0 mm 0.00 in0.0 mm 0.00 in0.0 mm
09:49 AM 84.9°F29.4°C -164.3°F-109.1°C - Calm Calm 1.4 mph2.3 kmh 29.46 in997.6 mb 0.00 in0.0 mm 0.00 in0.0 mm 0.00 in0.0 mm
10:04 AM 82.4°F28.0°C -164.6°F-109.2°C - Calm Calm 0.6 mph1.0 kmh 29.45 in997.3 mb 0.00 in0.0 mm 0.00 in0.0 mm 0.00 in0.0 mm
10:19 AM 81.9°F27.7°C -164.6°F-109.2°C - Calm Calm 1.4 mph2.3 kmh 29.44 in997.0 mb 0.00 in0.0 mm 0.00 in0.0 mm 0.00 in0.0 mm
10:34 AM 83.8°F28.8°C -164.4°F-109.1°C - Calm Calm 0.6 mph1.0 kmh 29.44 in997.0 mb 0.00 in0.0 mm 0.00 in0.0 mm 0.00 in0.0 mm
10:49 AM 83.1°F28.4°C -164.5°F-109.2°C - 1.4 mph N2.3 kmh N 3.4 mph5.5 kmh 29.47 in998.0 mb 0.00 in0.0 mm 0.00 in0.0 mm 0.00 in0.0 mm
11:04 AM 83.8°F28.8°C -164.4°F-109.1°C - 1.4 mph N2.3 kmh N 4.8 mph7.7 kmh 29.48 in998.3 mb 0.00 in0.0 mm 0.00 in0.0 mm 0.00 in0.0 mm
11:19 AM 81.7°F27.6°C -164.6°F-109.2°C - 5.4 mph N8.7 kmh N 8.8 mph14.2 kmh 29.52 in999.7 mb 0.00 in0.0 mm 0.00 in0.0 mm 0.00 in0.0 mm
11:34 AM 78.4°F25.8°C -165.0°F-109.4°C - 4.0 mph N6.4 kmh N 8.2 mph13.2 kmh 29.51 in999.3 mb 0.00 in0.0 mm 0.00 in0.0 mm 0.00 in0.0 mm
11:49 AM 77.4°F25.2°C -165.1°F-109.5°C - 0.6 mph N1.0 kmh N 2.8 mph4.5 kmh 29.49 in998.6 mb 0.00 in0.0 mm 0.00 in0.0 mm 0.00 in0.0 mm
12:04 PM 75.9°F24.4°C -165.2°F-109.6°C - 1.4 mph N2.3 kmh N 4.0 mph6.4 kmh 29.52 in999.7 mb 0.00 in0.0 mm 0.00 in0.0 mm 0.00 in0.0 mm
12:19 PM 72.9°F22.7°C -165.5°F-109.7°C - Calm Calm 2.0 mph3.2 kmh 29.52 in999.7 mb 0.00 in0.0 mm 0.00 in0.0 mm 0.00 in0.0 mm
12:34 PM 71.1°F21.7°C -165.7°F-109.8°C - Calm Calm 2.0 mph3.2 kmh 29.55 in1000.7 mb 0.07 in1.8 mm 0.30 in7.6 mm 0.07 in1.8 mm
12:49 PM 68.9°F20.5°C -165.9°F-109.9°C - Calm Calm 2.0 mph3.2 kmh 29.52 in999.7 mb 0.14 in3.6 mm 0.25 in6.4 mm 0.14 in3.6 mm
01:04 PM 68.5°F20.3°C -165.9°F-109.9°C - Calm Calm 2.0 mph3.2 kmh 29.52 in999.7 mb 0.14 in3.6 mm 0.00 in0.0 mm 0.14 in3.6 mm
01:19 PM 69.1°F20.6°C -165.9°F-109.9°C - 1.4 mph N2.3 kmh N 2.8 mph4.5 kmh 29.53 in1000.0 mb 0.00 in0.0 mm 0.00 in0.0 mm 0.14 in3.6 mm
01:34 PM 68.7°F20.4°C -165.9°F-109.9°C - Calm Calm 0.6 mph1.0 kmh 29.51 in999.3 mb 0.00 in0.0 mm 0.00 in0.0 mm 0.14 in3.6 mm
01:49 PM 68.9°F20.5°C -165.9°F-109.9°C - Calm Calm 2.8 mph4.5 kmh 29.53 in1000.0 mb 0.00 in0.0 mm 0.00 in0.0 mm 0.14 in3.6 mm
02:04 PM 69.4°F20.8°C -165.9°F-109.9°C - 0.6 mph N1.0 kmh N 2.0 mph3.2 kmh 29.53 in1000.0 mb 0.01 in0.3 mm 0.02 in0.5 mm 0.15 in3.8 mm
02:19 PM 68.5°F20.3°C -165.9°F-109.9°C - Calm Calm 0.6 mph1.0 kmh 29.52 in999.7 mb 0.00 in0.0 mm 0.00 in0.0 mm 0.15 in3.8 mm
02:34 PM 69.4°F20.8°C -165.9°F-109.9°C - Calm Calm 1.4 mph2.3 kmh 29.53 in1000.0 mb 0.00 in0.0 mm 0.00 in0.0 mm 0.15 in3.8 mm
02:49 PM 70.2°F21.2°C -165.8°F-109.9°C - Calm Calm 2.0 mph3.2 kmh 29.53 in1000.0 mb 0.00 in0.0 mm 0.00 in0.0 mm 0.15 in3.8 mm
03:04 PM 70.2°F21.2°C -165.8°F-109.9°C - Calm Calm 0.6 mph1.0 kmh 29.53 in1000.0 mb 0.00 in0.0 mm 0.00 in0.0 mm 0.15 in3.8 mm
03:19 PM 70.7°F21.5°C -165.7°F-109.8°C - Calm Calm 0.6 mph1.0 kmh 29.53 in1000.0 mb 0.00 in0.0 mm 0.00 in0.0 mm 0.15 in3.8 mm
03:34 PM 70.3°F21.3°C -165.8°F-109.9°C - Calm Calm 1.4 mph2.3 kmh 29.53 in1000.0 mb 0.00 in0.0 mm 0.00 in0.0 mm 0.15 in3.8 mm
03:49 PM 70.9°F21.6°C -165.7°F-109.8°C - 0.6 mph N1.0 kmh N 2.8 mph4.5 kmh 29.52 in999.7 mb 0.00 in0.0 mm 0.00 in0.0 mm 0.15 in3.8 mm
04:04 PM 71.1°F21.7°C -165.7°F-109.8°C - Calm Calm 1.4 mph2.3 kmh 29.53 in1000.0 mb 0.00 in0.0 mm 0.00 in0.0 mm 0.15 in3.8 mm
04:19 PM 71.4°F21.9°C -165.7°F-109.8°C - Calm Calm -- 29.53 in1000.0 mb 0.00 in0.0 mm 0.00 in0.0 mm 0.15 in3.8 mm
04:34 PM 70.9°F21.6°C -165.7°F-109.8°C - 0.6 mph N1.0 kmh N 2.8 mph4.5 kmh 29.53 in1000.0 mb 0.00 in0.0 mm 0.00 in0.0 mm 0.15 in3.8 mm
04:49 PM 70.9°F21.6°C -165.7°F-109.8°C - Calm Calm 1.4 mph2.3 kmh 29.53 in1000.0 mb 0.00 in0.0 mm 0.00 in0.0 mm 0.15 in3.8 mm
05:04 PM 70.9°F21.6°C -165.7°F-109.8°C - Calm Calm 0.6 mph1.0 kmh 29.52 in999.7 mb 0.00 in0.0 mm 0.00 in0.0 mm 0.15 in3.8 mm
05:19 PM 70.3°F21.3°C -165.8°F-109.9°C - 1.4 mph N2.3 kmh N 2.8 mph4.5 kmh 29.52 in999.7 mb 0.00 in0.0 mm 0.00 in0.0 mm 0.15 in3.8 mm
05:34 PM 70.3°F21.3°C -165.8°F-109.9°C - 1.4 mph N2.3 kmh N 2.0 mph3.2 kmh 29.52 in999.7 mb 0.00 in0.0 mm 0.00 in0.0 mm 0.15 in3.8 mm
05:49 PM 70.3°F21.3°C -165.8°F-109.9°C - Calm Calm 1.4 mph2.3 kmh 29.52 in999.7 mb 0.00 in0.0 mm 0.00 in0.0 mm 0.15 in3.8 mm
06:04 PM 70.0°F21.1°C -165.8°F-109.9°C - 0.6 mph N1.0 kmh N 2.0 mph3.2 kmh 29.52 in999.7 mb 0.00 in0.0 mm 0.00 in0.0 mm 0.15 in3.8 mm
06:19 PM 69.8°F21.0°C -165.8°F-109.9°C - 0.6 mph N1.0 kmh N 2.0 mph3.2 kmh 29.52 in999.7 mb 0.00 in0.0 mm 0.00 in0.0 mm 0.15 in3.8 mm
06:34 PM 69.6°F20.9°C -165.8°F-109.9°C - 0.6 mph N1.0 kmh N 2.8 mph4.5 kmh 29.52 in999.7 mb 0.00 in0.0 mm 0.00 in0.0 mm 0.15 in3.8 mm
06:49 PM 69.3°F20.7°C -165.9°F-109.9°C - Calm Calm 1.4 mph2.3 kmh 29.52 in999.7 mb 0.00 in0.0 mm 0.00 in0.0 mm 0.15 in3.8 mm
07:04 PM 69.1°F20.6°C -165.9°F-109.9°C - 1.4 mph N2.3 kmh N 4.0 mph6.4 kmh 29.52 in999.7 mb 0.00 in0.0 mm 0.00 in0.0 mm 0.15 in3.8 mm
07:19 PM 68.5°F20.3°C -165.9°F-109.9°C - Calm Calm 2.0 mph3.2 kmh 29.52 in999.7 mb 0.00 in0.0 mm 0.00 in0.0 mm 0.15 in3.8 mm
07:34 PM 68.2°F20.1°C -166.0°F-110.0°C - 0.6 mph N1.0 kmh N 2.8 mph4.5 kmh 29.54 in1000.3 mb 0.00 in0.0 mm 0.00 in0.0 mm 0.15 in3.8 mm
07:49 PM 67.5°F19.7°C -166.1°F-110.1°C - Calm Calm 0.6 mph1.0 kmh 29.53 in1000.0 mb 0.00 in0.0 mm 0.00 in0.0 mm 0.15 in3.8 mm
08:04 PM 66.9°F19.4°C -166.1°F-110.1°C - Calm Calm 0.6 mph1.0 kmh 29.54 in1000.3 mb 0.00 in0.0 mm 0.00 in0.0 mm 0.15 in3.8 mm
08:19 PM 66.4°F19.1°C -166.2°F-110.1°C - Calm Calm 2.0 mph3.2 kmh 29.55 in1000.7 mb 0.00 in0.0 mm 0.00 in0.0 mm 0.15 in3.8 mm
08:34 PM 66.2°F19.0°C -166.2°F-110.1°C - Calm Calm -- 29.55 in1000.7 mb 0.00 in0.0 mm 0.00 in0.0 mm 0.15 in3.8 mm
08:49 PM 66.9°F19.4°C -166.1°F-110.1°C - Calm Calm -- 29.56 in1001.0 mb 0.00 in0.0 mm 0.00 in0.0 mm 0.15 in3.8 mm
09:04 PM 66.7°F19.3°C -166.1°F-110.1°C - Calm Calm 1.4 mph2.3 kmh 29.56 in1001.0 mb 0.00 in0.0 mm 0.00 in0.0 mm 0.15 in3.8 mm
09:19 PM 66.7°F19.3°C -166.1°F-110.1°C - Calm Calm 1.4 mph2.3 kmh 29.56 in1001.0 mb 0.01 in0.3 mm 0.05 in1.3 mm 0.16 in4.1 mm
09:34 PM 66.2°F19.0°C -166.2°F-110.1°C - 0.6 mph N1.0 kmh N 2.8 mph4.5 kmh 29.56 in1001.0 mb 0.01 in0.3 mm 0.00 in0.0 mm 0.16 in4.1 mm
09:49 PM 65.8°F18.8°C -166.2°F-110.1°C - Calm Calm 0.6 mph1.0 kmh 29.56 in1001.0 mb 0.01 in0.3 mm 0.00 in0.0 mm 0.16 in4.1 mm
10:04 PM 65.3°F18.5°C -166.3°F-110.2°C - Calm Calm 0.6 mph1.0 kmh 29.56 in1001.0 mb 0.01 in0.3 mm 0.00 in0.0 mm 0.16 in4.1 mm
10:19 PM 65.3°F18.5°C -166.3°F-110.2°C - Calm Calm 0.6 mph1.0 kmh 29.56 in1001.0 mb 0.00 in0.0 mm 0.00 in0.0 mm 0.16 in4.1 mm
10:34 PM 64.9°F18.3°C -166.3°F-110.2°C - Calm Calm 0.6 mph1.0 kmh 29.57 in1001.4 mb 0.00 in0.0 mm 0.00 in0.0 mm 0.16 in4.1 mm
10:49 PM 64.6°F18.1°C -166.3°F-110.2°C - Calm Calm -- 29.55 in1000.7 mb 0.00 in0.0 mm 0.00 in0.0 mm 0.16 in4.1 mm
11:04 PM 64.2°F17.9°C -166.4°F-110.2°C - Calm Calm 0.6 mph1.0 kmh 29.55 in1000.7 mb 0.00 in0.0 mm 0.00 in0.0 mm 0.16 in4.1 mm
11:19 PM 63.7°F17.6°C -166.4°F-110.2°C - Calm Calm 0.6 mph1.0 kmh 29.54 in1000.3 mb 0.00 in0.0 mm 0.00 in0.0 mm 0.16 in4.1 mm
11:34 PM 63.5°F17.5°C -166.5°F-110.3°C - Calm Calm 1.4 mph2.3 kmh 29.56 in1001.0 mb 0.00 in0.0 mm 0.00 in0.0 mm 0.16 in4.1 mm
11:49 PM 63.9°F17.7°C -166.4°F-110.2°C - Calm Calm 1.4 mph2.3 kmh 29.58 in1001.7 mb 0.00 in0.0 mm 0.00 in0.0 mm 0.16 in4.1 mm